Time;durP1;ratioP1;P1;durP2;ratioP2;P2;SDS_P1;SDS_P2;PMS_P1;PMS_P2;Temp;Humidity;BMP_temperature;BMP_pressure;BME280_temperature;BME280_humidity;BME280_pressure;Samples;Min_cycle;Max_cycle;Signal;HPM_P1;HPM_P2
2022/05/20 00:01:06;;;;;;;17.60;14.18;;;;;;;15.97;70.83;102117.13;5052653;28;20028;-63
2022/05/20 00:03:34;;;;;;;17.17;14.60;;;;;;;16.00;70.90;102121.56;5052920;28;20021;-63
2022/05/20 00:06:00;;;;;;;18.40;15.50;;;;;;;15.96;71.37;102120.63;5052459;28;20029;-63
2022/05/20 00:08:27;;;;;;;16.83;15.05;;;;;;;15.86;71.24;102117.88;5052959;28;20381;-63
2022/05/20 00:10:53;;;;;;;15.60;13.93;;;;;;;15.76;71.34;102123.13;5052586;28;20056;-63
2022/05/20 00:13:24;;;;;;;15.70;14.02;;;;;;;15.74;70.98;102124.88;5052793;28;20075;-63
2022/05/20 00:15:50;;;;;;;15.05;13.25;;;;;;;15.74;71.24;102124.88;5052540;28;20489;-63
2022/05/20 00:18:16;;;;;;;14.55;13.05;;;;;;;15.80;70.97;102117.81;5055372;28;20087;-63
2022/05/20 00:20:42;;;;;;;14.00;12.52;;;;;;;15.89;70.19;102115.25;5056134;28;20493;-63
2022/05/20 00:23:08;;;;;;;14.50;12.55;;;;;;;15.92;69.50;102120.59;5056300;28;20505;-63
2022/05/20 00:25:46;;;;;;;13.63;12.23;;;;;;;15.85;69.64;102119.66;5056149;28;20025;-63
2022/05/20 00:28:28;;;;;;;12.65;11.45;;;;;;;15.92;69.36;102123.25;5056159;28;20092;-63
2022/05/20 00:31:11;;;;;;;14.23;11.43;;;;;;;15.92;69.07;102118.81;5056157;28;20500;-63
2022/05/20 00:33:38;;;;;;;12.02;10.77;;;;;;;15.85;68.29;102108.09;5056199;28;20336;-63
2022/05/20 00:36:04;;;;;;;12.38;11.07;;;;;;;15.76;68.65;102109.81;5055848;28;20025;-63
2022/05/20 00:38:30;;;;;;;10.82;9.73;;;;;;;15.70;68.38;102112.41;5056230;28;20029;-63
2022/05/20 00:40:58;;;;;;;13.35;10.70;;;;;;;15.70;69.63;102100.84;5055946;28;20079;-63
2022/05/20 00:43:26;;;;;;;16.55;11.75;;;;;;;15.70;69.73;102109.72;5056168;28;20052;-63
2022/05/20 00:45:54;;;;;;;14.45;12.57;;;;;;;15.75;69.23;102113.31;5056105;28;20029;-63
2022/05/20 00:48:20;;;;;;;30.05;13.43;;;;;;;15.74;69.35;102114.22;5055933;28;20032;-63
2022/05/20 00:50:55;;;;;;;19.42;13.25;;;;;;;15.63;69.32;102102.53;5055993;28;20083;-63
2022/05/20 00:53:23;;;;;;;14.85;12.50;;;;;;;15.59;69.34;102105.13;5055699;28;20095;-63
2022/05/20 00:55:49;;;;;;;42.90;13.32;;;;;;;15.60;69.41;102102.50;5055709;28;20032;-63
2022/05/20 00:58:23;;;;;;;28.55;12.20;;;;;;;15.61;69.28;102100.72;5055536;28;20036;-64
2022/05/20 01:00:54;;;;;;;18.40;12.52;;;;;;;15.57;69.65;102104.22;5055876;28;20029;-63
2022/05/20 01:03:24;;;;;;;22.15;13.15;;;;;;;15.48;69.76;102105.03;5055802;28;20032;-63
2022/05/20 01:05:52;;;;;;;40.22;12.95;;;;;;;15.49;69.74;102107.69;5055542;28;20028;-63
2022/05/20 01:08:22;;;;;;;48.78;12.63;;;;;;;15.48;69.70;102108.59;5055547;28;20029;-63
2022/05/20 01:10:47;;;;;;;95.07;12.38;;;;;;;15.31;70.04;102098.63;5055456;28;20037;-63
2022/05/20 01:13:15;;;;;;;48.22;11.88;;;;;;;15.27;69.96;102097.69;5055264;28;20021;-63
2022/05/20 01:15:41;;;;;;;16.20;12.70;;;;;;;15.20;69.95;102103.81;5055311;28;20033;-63
2022/05/20 01:18:08;;;;;;;64.00;13.60;;;;;;;15.18;70.59;102101.16;5055272;28;20083;-63
2022/05/20 01:20:38;;;;;;;32.90;13.15;;;;;;;15.17;70.42;102104.69;5055236;28;20385;-63
2022/05/20 01:23:19;;;;;;;56.65;13.45;;;;;;;15.01;70.68;102108.03;5055781;28;20025;-63
2022/05/20 01:25:56;;;;;;;75.28;14.77;;;;;;;14.98;71.03;102113.31;5058474;28;20122;-63
2022/05/20 01:28:24;;;;;;;85.85;15.35;;;;;;;14.84;71.41;102107.81;5056277;28;20021;-63
2022/05/20 01:30:55;;;;;;;31.02;14.70;;;;;;;14.86;71.27;102105.16;5055430;28;20394;-63
2022/05/20 01:33:34;;;;;;;29.20;15.10;;;;;;;14.82;71.43;102106.91;5055211;28;20103;-63
2022/05/20 01:36:02;;;;;;;23.40;15.43;;;;;;;14.86;71.45;102095.44;5054764;28;20021;-63
2022/05/20 01:38:28;;;;;;;16.48;14.48;;;;;;;14.86;71.04;102100.75;5054876;28;20035;-63
2022/05/20 01:41:22;;;;;;;47.97;15.70;;;;;;;14.95;70.34;102090.22;5055118;28;20049;-63
2022/05/20 01:44:17;;;;;;;29.92;14.88;;;;;;;14.93;69.93;102093.72;4973972;28;20125;-63
2022/05/20 01:47:00;;;;;;;19.02;14.32;;;;;;;14.90;69.93;102088.34;4935454;29;20405;-63
2022/05/20 01:49:41;;;;;;;24.85;14.30;;;;;;;14.88;69.76;102082.13;4935456;29;20076;-63
2022/05/20 01:52:18;;;;;;;30.27;13.98;;;;;;;14.83;69.75;102076.75;4935288;29;20052;-63
2022/05/20 01:54:58;;;;;;;16.35;12.60;;;;;;;14.79;70.32;102080.25;4935678;28;20622;-64
2022/05/20 01:57:41;;;;;;;23.63;11.65;;;;;;;14.78;70.04;102065.16;4935320;29;20044;-63
2022/05/20 02:00:39;;;;;;;67.25;12.50;;;;;;;14.80;69.79;102067.84;4935349;29;20560;-63
2022/05/20 02:03:19;;;;;;;45.50;12.63;;;;;;;14.65;70.43;102074.75;4897354;29;20518;-64
2022/05/20 02:06:00;;;;;;;16.08;12.55;;;;;;;14.68;70.64;102077.44;4897175;29;20037;-64
2022/05/20 02:08:32;;;;;;;16.65;12.75;;;;;;;14.69;70.77;102075.69;4897288;29;20040;-64
2022/05/20 02:11:19;;;;;;;15.13;13.07;;;;;;;14.71;70.76;102065.94;4897201;29;20443;-64
2022/05/20 02:13:53;;;;;;;20.92;13.05;;;;;;;14.72;70.81;102062.41;4897220;29;20041;-64
2022/05/20 02:16:24;;;;;;;15.20;13.60;;;;;;;14.74;71.13;102060.69;4896879;29;20049;-64
2022/05/20 02:19:14;;;;;;;18.83;14.00;;;;;;;14.65;71.04;102064.09;4897222;29;20036;-64
2022/05/20 02:21:44;;;;;;;62.15;13.95;;;;;;;14.60;71.27;102064.91;4913929;29;20091;-64
2022/05/20 02:24:13;;;;;;;62.35;14.55;;;;;;;14.56;71.68;102063.06;4957721;28;20062;-64
2022/05/20 02:26:49;;;;;;;22.25;14.13;;;;;;;14.60;71.54;102064.91;4973183;28;20042;-64
2022/05/20 02:29:18;;;;;;;45.83;14.05;;;;;;;14.55;71.68;102063.94;4973350;28;20078;-64
2022/05/20 02:31:54;;;;;;;65.50;15.43;;;;;;;14.53;71.68;102059.50;4973279;28;20035;-64
2022/05/20 02:34:19;;;;;;;31.60;14.82;;;;;;;14.51;71.97;102060.34;4973176;28;20480;-64
2022/05/20 02:36:45;;;;;;;57.22;15.30;;;;;;;14.51;71.86;102063.00;4973223;28;20038;-64
2022/05/20 02:39:16;;;;;;;32.88;14.82;;;;;;;14.58;71.77;102062.22;5005943;28;20494;-64
2022/05/20 02:41:44;;;;;;;49.25;15.07;;;;;;;14.58;71.56;102062.22;5053620;28;20025;-64
2022/05/20 02:44:09;;;;;;;31.17;15.98;;;;;;;14.59;71.80;102063.13;5053940;28;20032;-63
2022/05/20 02:46:36;;;;;;;46.67;13.68;;;;;;;14.51;71.54;102071.88;5054090;28;20029;-64
2022/05/20 02:49:02;;;;;;;48.38;13.98;;;;;;;14.40;71.60;102073.47;5053756;28;20067;-64
2022/05/20 02:51:28;;;;;;;70.22;15.95;;;;;;;14.22;72.47;102074.09;5053612;28;20096;-64
2022/05/20 02:53:53;;;;;;;58.42;13.93;;;;;;;14.01;72.98;102058.69;5053121;28;20131;-64
2022/05/20 02:56:19;;;;;;;28.38;15.07;;;;;;;14.13;72.92;102068.63;5053392;28;20036;-64
2022/05/20 03:04:23;;;;;;;25.25;14.55;;;;;;;14.24;72.28;102052.84;4953010;28;20051;-64
2022/05/20 03:06:51;;;;;;;34.13;15.50;;;;;;;14.26;72.40;102059.97;4953442;29;20157;-64
2022/05/20 03:09:22;;;;;;;87.50;14.30;;;;;;;14.14;72.05;102061.56;4953272;29;20182;-64
2022/05/20 03:11:48;;;;;;;61.97;14.55;;;;;;;14.13;72.57;102059.75;4953321;29;20035;-64
2022/05/20 03:14:16;;;;;;;30.00;14.57;;;;;;;14.14;72.36;102053.56;4953168;29;20039;-64
2022/05/20 03:16:41;;;;;;;36.75;14.50;;;;;;;14.17;72.23;102043.84;4953162;29;20032;-64
2022/05/20 03:19:08;;;;;;;19.45;14.13;;;;;;;14.21;72.03;102051.00;4952988;29;20106;-64
2022/05/20 03:21:35;;;;;;;29.13;14.30;;;;;;;14.20;71.91;102046.56;4953245;29;20148;-63
2022/05/20 03:24:01;;;;;;;36.88;14.73;;;;;;;14.23;72.01;102049.28;4953192;29;20122;-64
2022/05/20 03:26:28;;;;;;;69.07;15.43;;;;;;;14.23;72.01;102049.28;4953100;28;20378;-64
2022/05/20 03:28:54;;;;;;;119.53;14.60;;;;;;;14.21;72.08;102058.09;4953175;29;20047;-64
2022/05/20 03:31:20;;;;;;;114.38;14.68;;;;;;;14.12;72.46;102052.66;4953026;29;20035;-64
2022/05/20 03:33:46;;;;;;;41.70;15.50;;;;;;;14.14;72.60;102056.22;4952907;29;20035;-64
2022/05/20 03:36:12;;;;;;;44.55;15.02;;;;;;;13.99;72.77;102049.78;4952940;29;20161;-64
2022/05/20 03:38:38;;;;;;;33.88;14.57;;;;;;;14.02;72.75;102052.50;4952848;29;20035;-64
2022/05/20 03:41:04;;;;;;;28.15;15.02;;;;;;;14.07;72.41;102052.56;5016005;28;20041;-64
2022/05/20 03:43:30;;;;;;;20.83;14.43;;;;;;;14.09;72.50;102047.28;5052690;28;20021;-63
2022/05/20 03:45:55;;;;;;;22.48;14.43;;;;;;;14.09;72.41;102050.84;5052550;28;20478;-64
2022/05/20 03:48:21;;;;;;;33.85;14.10;;;;;;;14.10;72.11;102049.97;5052026;28;20021;-64
2022/05/20 03:50:47;;;;;;;21.67;14.98;;;;;;;14.13;72.31;102047.38;5052267;28;20378;-64
2022/05/20 03:53:14;;;;;;;57.72;15.93;;;;;;;14.09;72.31;102050.84;5054649;28;20079;-64
2022/05/20 03:55:39;;;;;;;59.72;16.10;;;;;;;14.06;72.91;102040.16;5056520;28;20029;-64
2022/05/20 03:58:05;;;;;;;71.53;18.08;;;;;;;13.95;73.94;102032.00;5055931;28;20091;-63
2022/05/20 04:00:31;;;;;;;54.95;18.23;;;;;;;13.87;74.43;102032.75;5056133;28;20120;-64
2022/05/20 04:03:01;;;;;;;52.03;18.75;;;;;;;13.80;75.10;102033.53;5038168;28;20433;-64
2022/05/20 04:05:32;;;;;;;24.20;18.30;;;;;;;13.70;75.97;102021.84;5055725;28;20025;-64
2022/05/20 04:07:58;;;;;;;26.27;18.80;;;;;;;13.63;76.37;102018.22;5056302;28;20056;-64
2022/05/20 04:10:23;;;;;;;32.17;18.55;;;;;;;13.63;76.94;102012.00;5055945;28;20045;-64
2022/05/20 04:12:48;;;;;;;32.92;20.13;;;;;;;13.59;76.96;102013.72;5056042;28;20449;-64
2022/05/20 04:15:15;;;;;;;36.63;18.60;;;;;;;13.62;76.89;102012.84;5055813;28;20504;-64
2022/05/20 04:17:40;;;;;;;26.85;18.70;;;;;;;13.67;76.41;102011.19;5055920;28;20029;-64
2022/05/20 04:20:08;;;;;;;34.17;18.25;;;;;;;13.67;76.38;102013.84;5055545;28;20051;-64
2022/05/20 04:22:36;;;;;;;24.63;18.08;;;;;;;13.76;76.78;102011.34;5055781;28;20025;-64
2022/05/20 04:25:03;;;;;;;84.68;17.13;;;;;;;13.72;76.98;102009.50;5055751;28;20458;-64
2022/05/20 04:27:29;;;;;;;34.20;16.58;;;;;;;13.84;76.31;102006.16;5055632;28;20024;-64
2022/05/20 04:29:55;;;;;;;29.30;16.42;;;;;;;13.93;76.19;102000.97;5055564;28;20312;-64
2022/05/20 04:32:21;;;;;;;86.75;16.40;;;;;;;13.87;76.03;102003.53;5055503;28;20104;-64
2022/05/20 04:34:47;;;;;;;69.47;15.98;;;;;;;13.92;75.99;101999.19;5056018;28;20435;-64
2022/05/20 04:37:13;;;;;;;24.42;15.55;;;;;;;14.07;75.85;102012.69;5055405;28;20025;-64
2022/05/20 04:39:40;;;;;;;41.00;15.95;;;;;;;14.08;75.71;102016.25;5055511;28;20103;-64
2022/05/20 04:47:39;;;;;;;30.92;16.55;;;;;;;14.29;75.89;102001.50;5055666;28;20036;-64
2022/05/20 04:50:06;;;;;;;27.42;17.23;;;;;;;14.33;75.53;102005.09;5055369;28;20381;-64
2022/05/20 04:52:31;;;;;;;65.57;17.42;;;;;;;14.28;76.13;102018.34;5054830;28;20041;-64
2022/05/20 04:54:56;;;;;;;58.30;17.90;;;;;;;14.27;76.22;102029.84;5055044;28;20107;-64
2022/05/20 04:57:32;;;;;;;45.15;18.08;;;;;;;14.27;76.27;102034.28;5055170;28;20204;-63
2022/05/20 05:00:08;;;;;;;40.42;18.27;;;;;;;14.27;76.20;102040.47;5054732;28;20021;-64
2022/05/20 05:02:34;;;;;;;50.35;18.80;;;;;;;14.31;76.24;102040.53;5054895;28;20144;-64
2022/05/20 05:04:59;;;;;;;38.75;19.63;;;;;;;14.38;76.29;102047.72;5055069;28;20421;-64
2022/05/20 05:07:25;;;;;;;28.85;20.48;;;;;;;14.41;76.96;102037.13;5055015;28;20029;-64
2022/05/20 05:09:51;;;;;;;23.77;19.23;;;;;;;14.47;77.20;102037.19;5054724;28;20029;-63
2022/05/20 05:12:18;;;;;;;25.27;19.73;;;;;;;14.51;77.65;102042.63;5055031;28;20338;-64
2022/05/20 05:14:49;;;;;;;24.38;20.90;;;;;;;14.55;78.24;102032.03;5054524;28;20044;-64
2022/05/20 05:18:09;;;;;;;22.75;20.27;;;;;;;14.73;77.55;102029.59;5054755;28;20478;-63
2022/05/20 05:20:05;;;;;;;26.35;20.77;;;;;;;14.75;77.49;102031.41;5054411;28;20029;-64
2022/05/20 05:22:30;;;;;;;25.25;20.40;;;;;;;14.78;78.07;102030.56;5054666;28;20112;-64
2022/05/20 05:24:56;;;;;;;24.58;20.20;;;;;;;14.87;77.48;102035.13;5054402;28;20040;-65
2022/05/20 05:27:21;;;;;;;26.02;20.25;;;;;;;14.94;77.02;102028.97;5054434;28;20389;-64
2022/05/20 05:29:47;;;;;;;23.60;20.40;;;;;;;15.03;77.07;102032.66;5054378;28;20079;-64
2022/05/20 05:32:12;;;;;;;28.52;22.58;;;;;;;15.05;77.26;102029.09;5054397;28;20021;-64
2022/05/20 05:34:37;;;;;;;27.58;22.10;;;;;;;15.13;76.83;102030.97;5054450;28;20122;-63
2022/05/20 05:37:03;;;;;;;26.95;22.98;;;;;;;15.25;77.10;102031.13;5054242;28;20063;-63
2022/05/20 05:39:28;;;;;;;28.55;23.38;;;;;;;15.35;77.08;102023.22;5054404;28;20017;-64
2022/05/20 05:41:54;;;;;;;26.95;22.80;;;;;;;15.40;77.18;102013.50;5054106;28;20444;-64
2022/05/20 05:44:19;;;;;;;27.48;22.92;;;;;;;15.42;77.05;102017.06;5054324;28;20032;-64
2022/05/20 05:46:45;;;;;;;27.55;23.40;;;;;;;15.35;77.46;102008.13;5054065;28;20021;-64
2022/05/20 05:49:11;;;;;;;29.98;23.85;;;;;;;15.38;77.78;102007.28;5054203;28;20025;-63
2022/05/20 05:51:37;;;;;;;34.58;23.70;;;;;;;15.48;78.41;102010.03;5054181;28;20143;-63
2022/05/20 05:54:02;;;;;;;28.77;23.73;;;;;;;15.69;78.70;102004.03;5053741;28;20163;-63
2022/05/20 05:56:28;;;;;;;28.10;23.15;;;;;;;15.81;77.21;101999.69;5054016;28;20037;-64
2022/05/20 05:58:53;;;;;;;26.77;22.23;;;;;;;15.86;76.41;102004.16;5053771;28;20021;-63
2022/05/20 06:01:19;;;;;;;28.40;23.77;;;;;;;15.88;76.93;101983.72;5054048;28;20025;-64
2022/05/20 06:03:44;;;;;;;26.50;22.67;;;;;;;16.02;77.64;101981.19;5053788;28;20025;-63
2022/05/20 06:06:09;;;;;;;26.70;21.77;;;;;;;16.11;76.48;101983.91;5053901;28;20033;-64
2022/05/20 06:08:35;;;;;;;29.27;22.73;;;;;;;16.25;76.14;101983.97;5053847;28;20021;-63
2022/05/20 06:11:00;;;;;;;28.45;21.30;;;;;;;16.43;75.00;101991.16;5053975;28;20017;-63
2022/05/20 06:13:29;;;;;;;30.25;21.60;;;;;;;16.58;74.63;101985.03;5053522;28;20040;-64
2022/05/20 06:15:57;;;;;;;29.67;20.92;;;;;;;16.75;75.04;101986.91;5053103;28;20029;-63
2022/05/20 06:18:23;;;;;;;27.40;21.17;;;;;;;16.94;73.92;101984.28;5053784;28;20017;-63
2022/05/20 06:20:49;;;;;;;26.52;20.92;;;;;;;16.98;73.72;101983.41;5053546;28;20057;-63
2022/05/20 06:23:15;;;;;;;24.92;20.42;;;;;;;17.09;73.67;101988.78;5053940;28;20063;-63
2022/05/20 06:25:41;;;;;;;28.00;20.73;;;;;;;17.20;73.64;101973.66;5053511;28;20029;-63
2022/05/20 06:28:13;;;;;;;27.42;19.05;;;;;;;17.40;71.13;101985.25;5053289;28;20127;-64
2022/05/20 06:30:39;;;;;;;23.88;18.08;;;;;;;17.62;70.68;101978.13;5053349;28;20040;-63
2022/05/20 06:33:05;;;;;;;22.30;16.85;;;;;;;17.74;69.61;101977.28;5053717;28;20029;-63
2022/05/20 06:41:00;;;;;;;20.15;15.77;;;;;;;18.17;67.99;101966.50;5053322;28;20086;-63
2022/05/20 06:43:27;;;;;;;22.38;16.58;;;;;;;18.29;67.97;101973.63;5053378;28;20477;-63
2022/05/20 06:45:56;;;;;;;21.75;15.65;;;;;;;18.27;67.69;101960.22;5053171;28;20434;-63
2022/05/20 06:48:22;;;;;;;22.77;15.82;;;;;;;18.36;67.35;101962.88;5053325;28;20466;-63
2022/05/20 06:50:48;;;;;;;20.98;14.32;;;;;;;18.53;66.98;101955.66;5052929;28;20025;-63
2022/05/20 06:53:14;;;;;;;18.20;14.05;;;;;;;18.55;65.20;101955.69;5052558;28;20044;-63
2022/05/20 06:55:40;;;;;;;20.80;13.93;;;;;;;18.39;66.11;101956.63;5053198;28;20056;-63
2022/05/20 06:58:05;;;;;;;19.88;14.00;;;;;;;18.34;66.44;101947.72;5052720;28;20064;-63
2022/05/20 07:00:31;;;;;;;18.75;13.18;;;;;;;18.20;66.30;101937.97;5053106;28;20025;-63
2022/05/20 07:02:56;;;;;;;19.48;13.07;;;;;;;18.34;67.86;101942.38;5052880;28;20029;-63
2022/05/20 07:05:22;;;;;;;17.52;12.15;;;;;;;18.57;66.33;101951.19;5053135;28;20021;-63
2022/05/20 07:07:47;;;;;;;19.33;11.80;;;;;;;18.81;63.33;101943.97;5052721;28;20032;-63
2022/05/20 07:10:14;;;;;;;18.55;12.57;;;;;;;18.88;64.34;101945.69;5052692;28;20025;-63
2022/05/20 07:12:40;;;;;;;16.17;12.18;;;;;;;18.92;63.66;101942.09;5053021;28;20025;-63
2022/05/20 07:15:06;;;;;;;17.98;12.60;;;;;;;18.96;63.17;101935.81;5052728;28;20473;-63
2022/05/20 07:17:32;;;;;;;18.10;11.85;;;;;;;19.04;62.87;101934.00;5052666;28;20021;-63
2022/05/20 07:19:58;;;;;;;13.50;10.13;;;;;;;19.18;63.39;101925.84;5052645;28;20112;-64
2022/05/20 07:22:24;;;;;;;15.40;10.00;;;;;;;19.35;62.97;101921.25;5052677;28;20057;-63
2022/05/20 07:24:50;;;;;;;14.77;10.25;;;;;;;19.49;61.19;101911.31;5052366;28;20064;-64
2022/05/20 07:27:16;;;;;;;17.90;10.43;;;;;;;19.65;60.10;101908.50;5051660;28;20029;-64
2022/05/20 07:29:43;;;;;;;13.25;9.15;;;;;;;19.76;57.79;101902.13;5052428;28;20029;-64
2022/05/20 07:32:08;;;;;;;12.32;8.13;;;;;;;19.96;57.37;101909.97;5052579;28;20036;-63
2022/05/20 07:34:34;;;;;;;14.98;9.25;;;;;;;20.13;57.24;101901.72;5052316;28;20021;-63
2022/05/20 07:36:59;;;;;;;14.27;9.43;;;;;;;20.37;57.18;101903.19;5052461;28;20020;-63
2022/05/20 07:39:25;;;;;;;14.00;9.30;;;;;;;20.58;56.98;101906.56;5052331;28;20462;-64
2022/05/20 07:41:51;;;;;;;12.68;8.55;;;;;;;20.83;55.14;101905.28;5034875;28;20033;-63
2022/05/20 07:44:18;;;;;;;13.80;8.80;;;;;;;20.88;55.67;101892.66;5052581;28;20358;-63
2022/05/20 07:46:44;;;;;;;14.18;8.30;;;;;;;21.13;53.54;101898.56;5052384;28;20478;-63
2022/05/20 07:49:09;;;;;;;11.40;7.95;;;;;;;21.25;55.32;101892.97;5052539;28;20029;-63
2022/05/20 07:51:39;;;;;;;10.60;7.28;;;;;;;21.24;52.91;101883.16;5052145;28;20040;-63
2022/05/20 07:54:09;;;;;;;12.38;7.43;;;;;;;21.28;53.17;101883.94;5052171;28;20052;-64
2022/05/20 07:56:59;;;;;;;15.32;7.40;;;;;;;21.47;53.48;101866.63;5052302;28;20039;-63
2022/05/20 07:59:31;;;;;;;11.07;7.72;;;;;;;21.46;51.27;101861.28;5052193;28;20048;-63
2022/05/20 08:01:59;;;;;;;18.27;7.40;;;;;;;21.61;53.16;101869.06;5052232;28;20025;-63
2022/05/20 08:07:16;;;;;;;11.13;7.43;;;;;;;21.74;51.53;101859.84;5052381;28;20047;-64
2022/05/20 08:09:42;;;;;;;12.13;7.65;;;;;;;21.72;50.37;101855.41;5052326;28;20025;-63
2022/05/20 08:12:08;;;;;;;12.77;7.60;;;;;;;21.59;51.64;101845.81;5052409;28;20083;-63
2022/05/20 08:14:34;;;;;;;12.75;7.20;;;;;;;21.80;54.18;101847.16;5052322;28;20033;-64
2022/05/20 08:17:01;;;;;;;13.10;7.13;;;;;;;21.77;49.45;101845.44;5052028;28;20363;-63
2022/05/20 08:19:27;;;;;;;10.82;6.55;;;;;;;22.06;50.97;101857.44;5051983;28;20103;-64
2022/05/20 08:21:53;;;;;;;11.38;7.55;;;;;;;22.22;50.74;101849.00;5052231;28;20030;-63
2022/05/20 08:24:19;;;;;;;12.02;7.00;;;;;;;22.32;49.38;101847.03;5052197;28;20466;-64
2022/05/20 08:26:44;;;;;;;10.43;6.80;;;;;;;22.40;46.95;101845.06;5052283;28;20099;-64
2022/05/20 08:29:13;;;;;;;11.68;6.95;;;;;;;22.29;47.32;101848.91;5052018;28;20028;-63
2022/05/20 08:31:44;;;;;;;13.65;6.60;;;;;;;22.21;48.09;101836.47;5052192;28;20025;-63
2022/05/20 08:34:10;;;;;;;16.20;6.87;;;;;;;22.28;47.09;101842.63;5051940;28;20401;-64
2022/05/20 08:36:38;;;;;;;13.30;6.85;;;;;;;22.44;48.11;101841.38;5052095;28;20768;-63
2022/05/20 08:39:05;;;;;;;13.70;7.63;;;;;;;22.39;47.67;101835.16;5054717;28;20036;-64
2022/05/20 08:41:37;;;;;;;12.52;7.60;;;;;;;22.33;48.68;101834.44;5055577;28;20386;-64
2022/05/20 08:44:08;;;;;;;14.63;8.13;;;;;;;22.24;48.80;101822.06;5055606;28;20100;-64
2022/05/20 08:46:34;;;;;;;13.30;8.10;;;;;;;22.12;48.59;101816.91;5055228;28;20033;-65
2022/05/20 08:49:00;;;;;;;12.55;8.70;;;;;;;21.99;49.99;101802.84;5055466;28;20029;-64
2022/05/20 08:51:30;;;;;;;12.98;8.52;;;;;;;21.94;50.59;101788.59;5055587;28;20142;-64
2022/05/20 08:53:56;;;;;;;13.25;8.50;;;;;;;21.98;51.11;101775.03;5055225;28;20383;-64
2022/05/20 08:56:25;;;;;;;14.07;8.70;;;;;;;21.95;50.10;101774.22;5055281;28;20581;-64
2022/05/20 08:59:02;;;;;;;15.13;9.25;;;;;;;22.12;50.59;101768.47;5055549;28;20497;-64
2022/05/20 09:01:41;;;;;;;12.20;8.75;;;;;;;22.28;50.23;101769.03;5055416;28;20043;-65
2022/05/20 09:04:08;;;;;;;18.88;9.20;;;;;;;22.39;51.33;101764.28;5055588;28;20029;-64
2022/05/20 09:06:57;;;;;;;12.77;8.88;;;;;;;22.64;49.92;101778.91;5055108;28;20044;-65
2022/05/20 09:09:47;;;;;;;12.02;8.93;;;;;;;22.70;49.00;101777.91;5055277;28;20032;-65
2022/05/20 09:12:36;;;;;;;16.35;9.70;;;;;;;22.53;50.27;101774.75;5054564;28;20048;-64
2022/05/20 09:18:08;;;;;;;16.40;9.80;;;;;;;22.22;51.04;101764.66;5054866;28;20094;-64
2022/05/20 09:20:42;;;;;;;14.70;8.75;;;;;;;22.29;51.93;101755.53;5054834;28;20083;-64
2022/05/20 09:23:11;;;;;;;12.70;9.13;;;;;;;22.35;51.09;101747.28;5054831;28;20029;-65
2022/05/20 09:25:46;;;;;;;14.98;8.93;;;;;;;22.54;51.84;101739.66;5054821;28;20072;-65
2022/05/20 09:28:36;;;;;;;12.88;8.25;;;;;;;22.86;50.05;101727.19;5054746;28;20035;-64
2022/05/20 09:31:12;;;;;;;16.88;9.18;;;;;;;23.20;50.02;101722.69;5054682;28;20087;-65
2022/05/20 09:33:47;;;;;;;16.38;8.65;;;;;;;23.48;49.12;101713.81;5054669;28;20029;-64
2022/05/20 09:36:43;;;;;;;14.75;8.80;;;;;;;23.74;47.87;101700.47;5054571;28;20429;-64
2022/05/20 09:39:18;;;;;;;18.88;8.98;;;;;;;23.73;48.11;101698.69;5054534;28;20418;-65
2022/05/20 09:41:56;;;;;;;18.00;8.88;;;;;;;23.88;47.36;101697.34;5054611;28;20378;-64
2022/05/20 09:44:31;;;;;;;15.18;8.25;;;;;;;24.06;46.80;101690.47;5054701;28;20071;-64
2022/05/20 09:47:12;;;;;;;15.35;8.02;;;;;;;24.01;47.93;101692.44;5054321;28;20033;-64
2022/05/20 09:49:52;;;;;;;13.45;7.85;;;;;;;24.05;47.33;101677.03;5053098;28;20056;-65
2022/05/20 09:52:39;;;;;;;11.88;7.47;;;;;;;24.10;46.30;101665.13;5054640;28;20028;-64
2022/05/20 09:55:14;;;;;;;13.75;7.38;;;;;;;24.06;44.93;101667.97;5053803;28;20037;-65
2022/05/20 09:57:46;;;;;;;13.95;7.72;;;;;;;24.18;45.30;101646.88;5053113;28;20074;-64
2022/05/20 10:00:20;;;;;;;12.15;7.10;;;;;;;24.36;45.16;101645.34;5053637;28;20044;-64
2022/05/20 10:03:10;;;;;;;11.80;7.22;;;;;;;24.64;45.08;101639.94;5054011;28;20104;-64
2022/05/20 10:05:50;;;;;;;12.90;7.45;;;;;;;24.85;44.90;101632.00;5053767;28;20035;-64
2022/05/20 10:08:40;;;;;;;15.52;8.30;;;;;;;24.96;45.66;101624.34;5053787;28;20082;-64
2022/05/20 10:11:53;;;;;;;12.68;7.82;;;;;;;25.11;44.91;101610.31;5053756;28;20063;-64
2022/05/20 10:14:39;;;;;;;14.40;7.97;;;;;;;25.10;43.90;101602.28;5035368;28;20048;-64
2022/05/20 10:17:26;;;;;;;17.27;8.50;;;;;;;25.16;43.44;101575.84;5053400;28;20482;-64
2022/05/20 10:20:02;;;;;;;11.27;7.07;;;;;;;25.32;44.18;101583.38;5035686;28;20036;-64
2022/05/20 10:22:39;;;;;;;17.90;7.78;;;;;;;25.16;43.92;101578.56;5053474;28;20025;-63
2022/05/20 10:25:38;;;;;;;13.15;7.70;;;;;;;25.12;45.01;101563.38;5053609;28;20029;-63
2022/05/20 10:34:02;;;;;;;14.68;8.10;;;;;;;24.55;46.77;101545.69;5053355;28;20048;-64
2022/05/20 10:36:40;;;;;;;15.45;9.50;;;;;;;24.41;46.62;101546.19;5053188;28;20033;-63
2022/05/20 10:39:17;;;;;;;15.07;9.57;;;;;;;24.32;47.20;101538.34;5053423;28;20150;-63
2022/05/20 10:41:48;;;;;;;18.45;10.05;;;;;;;23.99;47.82;101538.59;5053383;28;20099;-63
2022/05/20 10:50:15;;;;;;;13.75;8.77;;;;;;;23.81;47.96;101492.44;5053005;28;20293;-63
2022/05/20 10:53:06;;;;;;;15.07;9.48;;;;;;;23.82;49.38;101469.94;5052707;28;20375;-64
2022/05/20 10:55:41;;;;;;;18.15;10.77;;;;;;;23.74;48.72;101459.38;5052965;28;20037;-64
2022/05/20 10:58:49;;;;;;;16.45;10.57;;;;;;;23.68;49.15;101449.69;5052966;28;20029;-63
2022/05/20 11:01:40;;;;;;;16.23;10.38;;;;;;;23.62;49.48;101430.09;4971495;28;20082;-63
2022/05/20 11:04:18;;;;;;;13.48;9.48;;;;;;;23.67;51.20;101422.75;4972402;28;20034;-63
2022/05/20 11:06:46;;;;;;;15.88;10.50;;;;;;;23.70;50.08;101406.47;4973117;28;20082;-63
2022/05/20 11:09:22;;;;;;;22.83;11.27;;;;;;;23.72;50.37;101400.09;4973044;28;20086;-63
2022/05/20 11:11:56;;;;;;;17.70;11.30;;;;;;;23.62;49.40;101384.22;4973499;28;20416;-63
2022/05/20 11:15:04;;;;;;;17.02;11.23;;;;;;;23.53;50.46;101379.16;4972041;28;20405;-63
2022/05/20 11:17:56;;;;;;;16.77;11.32;;;;;;;23.62;51.09;101371.59;4971967;28;20038;-63
2022/05/20 11:20:52;;;;;;;19.83;12.77;;;;;;;23.68;50.27;101357.94;4971933;28;20069;-63
2022/05/20 11:23:38;;;;;;;17.15;11.82;;;;;;;23.70;51.02;101364.16;4971729;28;20043;-63
2022/05/20 11:26:22;;;;;;;21.20;13.77;;;;;;;23.78;51.57;101353.09;4971928;28;20471;-63
2022/05/20 11:28:56;;;;;;;21.42;13.88;;;;;;;23.77;51.65;101345.94;4971735;28;20058;-63
2022/05/20 11:31:51;;;;;;;23.42;15.00;;;;;;;23.80;50.89;101344.94;4971914;28;20121;-63
2022/05/20 11:34:27;;;;;;;21.42;14.07;;;;;;;23.71;53.41;101335.34;4971797;28;20038;-63
2022/05/20 11:37:24;;;;;;;24.77;15.38;;;;;;;23.60;51.97;101337.53;4976731;28;20432;-64
2022/05/20 11:40:17;;;;;;;20.90;15.70;;;;;;;23.47;51.86;101342.50;5052480;28;20036;-63
2022/05/20 11:43:12;;;;;;;22.50;15.82;;;;;;;23.36;53.02;101325.78;5052552;28;20036;-63
2022/05/20 11:46:02;;;;;;;23.38;16.85;;;;;;;23.24;53.44;101337.88;4952129;29;20531;-64
2022/05/20 11:48:50;;;;;;;26.45;16.58;;;;;;;23.09;53.58;101343.78;4952631;29;20436;-64
2022/05/20 11:51:40;;;;;;;23.90;17.42;;;;;;;22.98;54.23;101330.66;4952307;29;20050;-64
2022/05/20 11:54:20;;;;;;;27.95;17.88;;;;;;;22.82;54.73;101314.06;4942511;29;20056;-64
2022/05/20 11:57:00;;;;;;;23.30;18.27;;;;;;;22.68;55.73;101297.47;4933156;29;20409;-63
2022/05/20 11:59:32;;;;;;;28.35;18.85;;;;;;;22.58;56.56;101282.53;4933396;29;20505;-63
2022/05/20 12:02:01;;;;;;;28.27;19.08;;;;;;;22.50;56.62;101280.97;4933348;29;20453;-63
2022/05/20 12:04:30;;;;;;;26.23;18.90;;;;;;;22.45;57.29;101292.81;4933423;29;20055;-63
2022/05/20 12:07:04;;;;;;;27.95;19.25;;;;;;;22.47;57.75;101286.44;4933131;29;20027;-63